createdAt,value
2022-09-07T00:01:51.048Z,99602.94
2022-09-07T00:04:18.876Z,99603.75
2022-09-07T00:06:47.030Z,99613.81
2022-09-07T00:09:15.893Z,99609.53
2022-09-07T00:11:43.481Z,99599.75
2022-09-07T00:14:11.073Z,99607.91
2022-09-07T00:16:38.697Z,99615.97
2022-09-07T00:19:06.287Z,99612.25
2022-09-07T00:21:34.062Z,99620.91
2022-09-07T00:24:01.592Z,99630.69
2022-09-07T00:26:32.181Z,99618.19
2022-09-07T00:29:01.816Z,99633.13
2022-09-07T00:31:31.380Z,99631.50
2022-09-07T00:34:01.871Z,99640.75
2022-09-07T00:36:30.707Z,99631.28
2022-09-07T00:38:59.483Z,99634.13
2022-09-07T00:41:27.978Z,99636.09
2022-09-07T00:43:58.958Z,99639.13
2022-09-07T00:46:29.007Z,99636.97
2022-09-07T00:49:01.574Z,99643.34
2022-09-07T00:51:33.409Z,99649.41
2022-09-07T00:54:06.765Z,99648.81
2022-09-07T00:56:37.634Z,99641.38
2022-09-07T00:59:07.283Z,99643.41
2022-09-07T01:01:35.468Z,99639.16
2022-09-07T01:04:04.597Z,99658.03
2022-09-07T01:06:34.417Z,99648.91
2022-09-07T01:09:04.989Z,99638.78
2022-09-07T01:11:34.730Z,99638.53
2022-09-07T01:14:04.417Z,99632.16
2022-09-07T01:16:55.842Z,99633.00
2022-09-07T01:20:10.473Z,99630.72
2022-09-07T01:22:55.927Z,99622.38
2022-09-07T01:25:34.815Z,99632.06
2022-09-07T01:28:13.214Z,99620.03
2022-09-07T01:30:46.376Z,99628.97
2022-09-07T01:33:30.982Z,99614.97
2022-09-07T01:36:06.884Z,99606.72
2022-09-07T01:38:42.767Z,99593.22
2022-09-07T01:41:17.630Z,99603.81
2022-09-07T01:43:51.324Z,99586.69
2022-09-07T01:46:23.607Z,99577.88
2022-09-07T01:48:55.023Z,99586.41
2022-09-07T01:51:28.985Z,99569.56
2022-09-07T01:54:00.201Z,99559.09
2022-09-07T01:56:34.312Z,99560.50
2022-09-07T01:59:05.857Z,99552.28
2022-09-07T02:01:39.663Z,99545.78
2022-09-07T02:04:11.708Z,99530.06
2022-09-07T02:06:46.478Z,99514.59
2022-09-07T02:09:19.800Z,99502.84
2022-09-07T02:11:50.055Z,99498.22
2022-09-07T02:14:23.559Z,99479.47
2022-09-07T02:16:56.895Z,99461.22
2022-09-07T02:19:27.952Z,99455.00
2022-09-07T02:22:01.622Z,99442.34
2022-09-07T02:24:34.085Z,99428.88
2022-09-07T02:27:06.502Z,99424.06
2022-09-07T02:29:35.540Z,99424.63
2022-09-07T02:32:03.598Z,99416.38
2022-09-07T02:34:32.188Z,99421.22
2022-09-07T02:37:02.645Z,99424.78
2022-09-07T02:39:30.436Z,99429.50
2022-09-07T02:41:58.109Z,99434.03
2022-09-07T02:44:29.061Z,99432.63
2022-09-07T02:47:12.274Z,99435.72
2022-09-07T02:49:55.314Z,99437.66
2022-09-07T02:52:32.980Z,99443.56
2022-09-07T02:55:10.900Z,99443.50
2022-09-07T02:57:47.655Z,99442.25
2022-09-07T03:00:19.196Z,99437.56
2022-09-07T03:02:56.532Z,99438.53
2022-09-07T03:05:26.960Z,99440.81
2022-09-07T03:08:00.878Z,99441.84
2022-09-07T03:10:29.351Z,99442.03
2022-09-07T03:12:56.906Z,99444.34
2022-09-07T03:15:26.677Z,99449.03
2022-09-07T03:17:55.713Z,99439.34
2022-09-07T03:20:24.094Z,99434.38
2022-09-07T03:22:53.100Z,99441.44
2022-09-07T03:25:23.034Z,99430.94
2022-09-07T03:27:50.604Z,99445.72
2022-09-07T03:30:18.440Z,99443.94
2022-09-07T03:32:45.956Z,99435.19
2022-09-07T03:35:15.159Z,99433.78
2022-09-07T03:37:42.696Z,99432.03
2022-09-07T03:40:13.134Z,99437.97
2022-09-07T03:42:41.345Z,99434.38
2022-09-07T03:45:10.358Z,99437.56
2022-09-07T03:47:38.632Z,99442.47
2022-09-07T03:50:07.589Z,99439.34
2022-09-07T03:52:36.823Z,99441.06
2022-09-07T03:55:05.033Z,99444.19
2022-09-07T03:57:32.567Z,99445.03
2022-09-07T04:00:00.184Z,99447.59
2022-09-07T04:02:27.781Z,99454.56
2022-09-07T04:04:55.371Z,99443.75
2022-09-07T04:07:22.927Z,99444.75
2022-09-07T04:09:52.234Z,99438.06
2022-09-07T04:12:19.747Z,99430.09
2022-09-07T04:14:47.306Z,99441.47
2022-09-07T04:17:14.886Z,99433.69
2022-09-07T04:19:42.505Z,99437.75
2022-09-07T04:22:10.044Z,99438.47
2022-09-07T04:24:37.593Z,99453.00
2022-09-07T04:27:06.623Z,99450.16
2022-09-07T04:29:34.206Z,99442.88
2022-09-07T04:32:01.829Z,99454.84
2022-09-07T04:34:29.672Z,99450.00
2022-09-07T04:36:57.190Z,99450.31
2022-09-07T04:39:24.794Z,99449.44
2022-09-07T04:41:52.326Z,99449.16
2022-09-07T04:44:21.244Z,99442.91
2022-09-07T04:46:48.808Z,99441.06
2022-09-07T04:49:16.389Z,99438.63
2022-09-07T04:51:44.297Z,99441.06
2022-09-07T04:54:12.401Z,99445.91
2022-09-07T04:56:39.990Z,99437.22
2022-09-07T04:59:07.622Z,99431.34
2022-09-07T05:01:36.575Z,99438.94
2022-09-07T05:04:05.070Z,99446.16
2022-09-07T05:06:32.724Z,99438.59
2022-09-07T05:09:00.558Z,99439.06
2022-09-07T05:11:29.803Z,99441.91
2022-09-07T05:13:58.030Z,99443.69
2022-09-07T05:16:26.121Z,99448.53
2022-09-07T05:18:57.052Z,99446.00
2022-09-07T05:21:26.661Z,99442.28
2022-09-07T05:23:56.823Z,99446.84
2022-09-07T05:26:26.784Z,99455.16
2022-09-07T05:31:42.473Z,99447.72
2022-09-07T05:36:59.155Z,99453.69
2022-09-07T05:39:27.120Z,99454.84
2022-09-07T05:41:54.753Z,99453.97
2022-09-07T05:47:10.684Z,99449.56
2022-09-07T05:49:39.648Z,99459.34
2022-09-07T05:52:07.245Z,99455.91
2022-09-07T05:54:34.901Z,99453.66
2022-09-07T05:57:03.348Z,99462.25
2022-09-07T05:59:30.921Z,99460.66
2022-09-07T06:01:58.470Z,99457.13
2022-09-07T06:04:26.160Z,99464.81
2022-09-07T06:12:30.166Z,99472.44
2022-09-07T06:14:57.741Z,99464.72
2022-09-07T06:17:25.281Z,99477.94
2022-09-07T06:19:52.825Z,99473.28
2022-09-07T06:22:21.796Z,99468.00
2022-09-07T06:24:49.362Z,99458.72
2022-09-07T06:27:16.896Z,99466.53
2022-09-07T06:29:44.438Z,99467.50
2022-09-07T06:34:59.571Z,99472.28
2022-09-07T06:37:28.454Z,99467.81
2022-09-07T06:39:56.092Z,99481.75
2022-09-07T06:42:23.797Z,99483.53
2022-09-07T06:44:51.372Z,99492.88
2022-09-07T06:47:18.888Z,99496.91
2022-09-07T06:49:46.454Z,99503.69
2022-09-07T06:52:13.987Z,99497.91
2022-09-07T06:57:26.998Z,99511.25
2022-09-07T06:59:54.526Z,99508.53
2022-09-07T07:02:22.266Z,99514.81
2022-09-07T07:04:51.202Z,99508.34
2022-09-07T07:07:18.881Z,99518.69
2022-09-07T07:09:47.773Z,99519.50
2022-09-07T07:14:52.429Z,99515.59
2022-09-07T07:17:19.951Z,99515.75
2022-09-07T07:19:47.554Z,99513.66
2022-09-07T07:25:04.969Z,99513.47
2022-09-07T07:27:32.751Z,99523.53
2022-09-07T07:30:00.332Z,99521.53
2022-09-07T07:32:27.886Z,99519.16
2022-09-07T07:34:55.373Z,99522.91
2022-09-07T07:37:27.778Z,99512.50
2022-09-07T07:42:45.611Z,99520.56
2022-09-07T07:48:01.811Z,99530.06
2022-09-07T07:50:31.294Z,99538.53
2022-09-07T07:55:50.998Z,99543.41
2022-09-07T07:58:20.413Z,99543.69
2022-09-07T08:00:54.862Z,99543.69
2022-09-07T08:03:23.542Z,99551.78
2022-09-07T08:05:51.484Z,99545.72
2022-09-07T08:08:19.302Z,99562.28
2022-09-07T08:10:47.887Z,99560.44
2022-09-07T08:13:15.600Z,99564.03
2022-09-07T08:15:46.084Z,99567.22
2022-09-07T08:18:14.219Z,99580.00
2022-09-07T08:20:41.845Z,99574.31
2022-09-07T08:23:10.824Z,99582.75
2022-09-07T08:25:38.584Z,99579.38
2022-09-07T08:28:06.588Z,99579.38
2022-09-07T08:30:34.140Z,99580.13
2022-09-07T08:33:03.208Z,99579.13
2022-09-07T08:35:30.687Z,99579.38
2022-09-07T08:37:58.473Z,99570.97
2022-09-07T08:40:29.075Z,99585.66
2022-09-07T08:43:08.619Z,99579.25
2022-09-07T08:45:40.777Z,99574.19
2022-09-07T08:48:15.627Z,99581.38
2022-09-07T08:50:55.936Z,99574.94
2022-09-07T08:53:24.996Z,99571.88
2022-09-07T08:55:56.182Z,99583.72
2022-09-07T08:58:48.116Z,99580.03
2022-09-07T09:04:20.011Z,99569.81
2022-09-07T09:07:02.706Z,99579.19
2022-09-07T09:09:40.731Z,99573.28
2022-09-07T09:12:18.645Z,99567.00
2022-09-07T09:15:04.439Z,99563.59
2022-09-07T09:17:36.562Z,99563.47
2022-09-07T09:20:15.865Z,99562.75
2022-09-07T09:22:46.654Z,99568.91
2022-09-07T09:25:20.780Z,99572.66
2022-09-07T09:27:50.801Z,99573.50
2022-09-07T09:30:20.570Z,99565.88
2022-09-07T09:32:50.571Z,99576.75
2022-09-07T09:35:26.769Z,99580.28
2022-09-07T09:37:54.309Z,99582.00
2022-09-07T09:40:25.943Z,99587.28
2022-09-07T09:43:04.435Z,99585.47
2022-09-07T09:48:32.340Z,99578.84
2022-09-07T09:53:56.727Z,99574.03
2022-09-07T09:56:37.330Z,99571.34
2022-09-07T10:05:26.826Z,99566.88
2022-09-07T10:07:56.297Z,99569.31
2022-09-07T10:10:24.186Z,99571.63
2022-09-07T10:12:55.056Z,99570.97
2022-09-07T10:15:41.245Z,99566.38
2022-09-07T10:18:21.136Z,99566.34
2022-09-07T10:20:48.770Z,99573.97
2022-09-07T10:23:25.840Z,99570.56
2022-09-07T10:25:53.527Z,99569.91
2022-09-07T10:28:23.842Z,99566.50
2022-09-07T10:31:04.133Z,99569.56
2022-09-07T10:34:25.752Z,99570.50
2022-09-07T10:36:39.335Z,99573.25
2022-09-07T10:39:15.067Z,99578.81
2022-09-07T10:41:53.874Z,99577.72
2022-09-07T10:44:29.424Z,99568.50
2022-09-07T10:47:03.872Z,99569.88
2022-09-07T10:49:35.126Z,99572.81
2022-09-07T10:52:15.581Z,99573.00
2022-09-07T10:54:54.714Z,99572.31
2022-09-07T10:57:34.302Z,99574.75
2022-09-07T11:00:09.287Z,99574.91
2022-09-07T11:05:50.092Z,99587.75
2022-09-07T11:08:34.320Z,99577.13
2022-09-07T11:14:19.116Z,99573.81
2022-09-07T11:16:52.803Z,99576.97
2022-09-07T11:19:38.723Z,99574.16
2022-09-07T11:22:22.009Z,99575.97
2022-09-07T11:27:48.716Z,99570.84
2022-09-07T11:30:21.577Z,99572.81
2022-09-07T11:32:59.591Z,99575.06
2022-09-07T11:35:36.090Z,99573.41
2022-09-07T11:38:13.856Z,99570.38
2022-09-07T11:40:49.477Z,99566.13
2022-09-07T11:43:23.497Z,99560.91
2022-09-07T11:45:55.562Z,99561.22
2022-09-07T11:48:30.420Z,99566.06
2022-09-07T11:51:01.922Z,99559.41
2022-09-07T11:53:32.858Z,99553.41
2022-09-07T11:56:04.833Z,99559.13
2022-09-07T11:58:50.225Z,99555.72
2022-09-07T12:01:31.522Z,99551.59
2022-09-07T12:04:16.451Z,99553.03
2022-09-07T12:07:22.913Z,99544.09
2022-09-07T12:10:15.533Z,99544.81
2022-09-07T12:13:12.267Z,99551.00
2022-09-07T12:15:48.937Z,99547.09
2022-09-07T12:18:27.534Z,99547.25
2022-09-07T12:20:55.159Z,99534.88
2022-09-07T12:23:28.611Z,99543.09
2022-09-07T12:26:39.554Z,99538.72
2022-09-07T12:29:21.091Z,99540.72
2022-09-07T12:32:07.298Z,99535.44
2022-09-07T12:34:50.363Z,99530.00
2022-09-07T12:37:38.715Z,99524.53
2022-09-07T12:41:00.983Z,99526.31
2022-09-07T12:43:34.874Z,99518.81
2022-09-07T12:46:02.859Z,99518.53
2022-09-07T12:48:49.472Z,99518.25
2022-09-07T12:54:28.462Z,99516.63
2022-09-07T13:00:02.868Z,99512.78
2022-09-07T13:02:50.903Z,99526.44
2022-09-07T13:05:36.426Z,99524.72
2022-09-07T13:08:18.322Z,99520.03
2022-09-07T13:10:47.141Z,99513.19
2022-09-07T13:14:02.595Z,99518.28
2022-09-07T13:16:28.548Z,99511.25
2022-09-07T13:18:56.477Z,99513.38
2022-09-07T13:21:50.013Z,99513.59
2022-09-07T13:24:55.125Z,99515.16
2022-09-07T13:27:33.798Z,99520.28
2022-09-07T13:30:05.293Z,99517.00
2022-09-07T13:35:24.477Z,99507.66
2022-09-07T13:37:57.145Z,99500.06
2022-09-07T13:40:27.450Z,99494.28
2022-09-07T13:42:57.353Z,99499.00
2022-09-07T13:45:31.102Z,99496.28
2022-09-07T13:48:06.422Z,99484.69
2022-09-07T13:50:45.088Z,99489.41
2022-09-07T13:53:27.416Z,99493.72
2022-09-07T13:56:05.376Z,99490.53
2022-09-07T13:58:36.361Z,99485.94
2022-09-07T14:01:06.720Z,99489.03
2022-09-07T14:03:40.139Z,99491.00
2022-09-07T14:06:33.079Z,99486.84
2022-09-07T14:09:04.748Z,99490.31
2022-09-07T14:11:41.321Z,99487.25
2022-09-07T14:14:23.140Z,99489.22
2022-09-07T14:16:55.534Z,99491.66
2022-09-07T14:19:25.921Z,99493.25
2022-09-07T14:22:01.949Z,99482.53
2022-09-07T14:24:33.426Z,99488.16
2022-09-07T14:27:01.226Z,99498.91
2022-09-07T14:29:31.372Z,99489.19
2022-09-07T14:32:01.049Z,99492.22
2022-09-07T14:34:32.228Z,99488.06
2022-09-07T14:37:04.573Z,99477.25
2022-09-07T14:47:07.632Z,99464.44
2022-09-07T14:49:35.805Z,99465.09
2022-09-07T14:52:03.990Z,99465.94
2022-09-07T14:54:34.795Z,99467.72
2022-09-07T14:57:05.819Z,99463.59
2022-09-07T14:59:39.670Z,99463.13
2022-09-07T15:02:27.033Z,99456.03
2022-09-07T15:05:23.428Z,99455.47
2022-09-07T15:07:53.118Z,99447.00
2022-09-07T15:10:41.961Z,99450.03
2022-09-07T15:13:26.131Z,99457.84
2022-09-07T15:15:58.903Z,99447.75
2022-09-07T15:18:51.646Z,99448.91
2022-09-07T15:21:19.759Z,99458.78
2022-09-07T15:23:50.017Z,99450.09
2022-09-07T15:29:10.531Z,99454.81
2022-09-07T15:31:41.676Z,99452.69
2022-09-07T15:34:14.172Z,99454.25
2022-09-07T15:36:44.021Z,99449.53
2022-09-07T15:39:17.486Z,99454.34
2022-09-07T15:41:45.453Z,99453.03
2022-09-07T15:44:13.910Z,99446.69
2022-09-07T15:46:41.897Z,99444.31
2022-09-07T15:49:10.326Z,99441.03
2022-09-07T15:54:35.267Z,99439.81
2022-09-07T15:59:52.365Z,99448.25
2022-09-07T16:05:08.635Z,99435.06
2022-09-07T16:10:25.237Z,99424.47
2022-09-07T16:13:01.975Z,99426.19
2022-09-07T16:15:30.232Z,99427.41
2022-09-07T16:17:58.436Z,99429.38
2022-09-07T16:20:26.143Z,99420.53
2022-09-07T16:25:43.921Z,99405.09
2022-09-07T16:28:11.896Z,99409.13
2022-09-07T16:30:41.307Z,99402.56
2022-09-07T16:33:09.191Z,99401.59
2022-09-07T16:35:36.727Z,99401.59
2022-09-07T16:40:53.391Z,99398.09
2022-09-07T16:43:21.498Z,99397.81
2022-09-07T16:46:04.784Z,99399.31
2022-09-07T16:48:34.016Z,99394.13
2022-09-07T16:51:02.786Z,99395.97
2022-09-07T16:53:34.214Z,99402.09
2022-09-07T16:56:02.950Z,99400.94
2022-09-07T16:58:35.708Z,99400.75
2022-09-07T17:01:04.688Z,99397.81
2022-09-07T17:03:32.371Z,99402.75
2022-09-07T17:06:00.889Z,99405.13
2022-09-07T17:08:28.632Z,99404.16
2022-09-07T17:11:01.168Z,99404.50
2022-09-07T17:13:28.768Z,99400.69
2022-09-07T17:16:02.109Z,99401.47
2022-09-07T17:21:19.678Z,99405.09
2022-09-07T17:23:54.300Z,99411.75
2022-09-07T17:26:27.141Z,99406.53
2022-09-07T17:28:56.552Z,99407.78
2022-09-07T17:34:17.776Z,99409.78
2022-09-07T17:36:45.339Z,99409.97
2022-09-07T17:39:15.953Z,99399.09
2022-09-07T17:41:46.257Z,99407.97
2022-09-07T17:44:13.804Z,99402.38
2022-09-07T17:46:41.516Z,99399.47
2022-09-07T17:49:12.220Z,99406.47
2022-09-07T17:51:40.402Z,99397.16
2022-09-07T17:54:10.835Z,99401.59
2022-09-07T17:56:39.648Z,99395.81
2022-09-07T18:01:57.051Z,99388.84
2022-09-07T18:04:25.037Z,99400.22
2022-09-07T18:06:53.888Z,99397.19
2022-09-07T18:09:21.690Z,99403.59
2022-09-07T18:11:50.092Z,99402.41
2022-09-07T18:14:19.997Z,99406.31
2022-09-07T18:16:49.806Z,99403.41
2022-09-07T18:19:18.716Z,99401.53
2022-09-07T18:21:47.637Z,99404.91
2022-09-07T18:24:17.535Z,99398.09
2022-09-07T18:26:52.042Z,99402.69
2022-09-07T18:29:29.371Z,99405.56
2022-09-07T18:31:59.910Z,99399.25
2022-09-07T18:34:28.671Z,99398.25
2022-09-07T18:36:57.107Z,99405.22
2022-09-07T18:39:24.775Z,99401.44
2022-09-07T18:41:53.339Z,99401.28
2022-09-07T18:47:21.137Z,99395.81
2022-09-07T18:49:50.746Z,99394.91
2022-09-07T18:55:07.852Z,99381.16
2022-09-07T18:57:36.514Z,99383.16
2022-09-07T19:00:07.262Z,99384.41
2022-09-07T19:02:35.775Z,99379.34
2022-09-07T19:07:51.638Z,99383.72
2022-09-07T19:10:19.167Z,99384.56
2022-09-07T19:12:46.692Z,99384.09
2022-09-07T19:15:15.972Z,99378.63
2022-09-07T19:17:43.691Z,99378.09
2022-09-07T19:20:11.474Z,99380.44
2022-09-07T19:22:39.257Z,99379.38
2022-09-07T19:25:07.248Z,99382.28
2022-09-07T19:27:34.746Z,99371.28
2022-09-07T19:30:02.435Z,99367.88
2022-09-07T19:32:31.621Z,99369.16
2022-09-07T19:34:59.227Z,99369.81
2022-09-07T19:37:28.824Z,99374.59
2022-09-07T19:39:56.786Z,99361.50
2022-09-07T19:42:24.985Z,99366.72
2022-09-07T19:44:52.929Z,99370.13
2022-09-07T19:47:21.146Z,99368.09
2022-09-07T19:49:50.064Z,99370.34
2022-09-07T19:52:17.560Z,99375.72
2022-09-07T19:54:45.595Z,99369.72
2022-09-07T19:57:13.079Z,99371.16
2022-09-07T19:59:40.587Z,99367.97
2022-09-07T20:02:09.701Z,99357.97
2022-09-07T20:04:37.245Z,99355.88
2022-09-07T20:07:06.503Z,99355.56
2022-09-07T20:09:34.034Z,99351.84
2022-09-07T20:12:03.649Z,99353.72
2022-09-07T20:14:31.172Z,99356.53
2022-09-07T20:16:58.666Z,99353.50
2022-09-07T20:19:26.294Z,99351.34
2022-09-07T20:21:55.572Z,99346.91
2022-09-07T20:24:24.719Z,99342.97
2022-09-07T20:26:52.244Z,99340.97
2022-09-07T20:29:28.532Z,99340.06
2022-09-07T20:31:57.178Z,99334.03
2022-09-07T20:34:24.722Z,99328.84
2022-09-07T20:36:52.911Z,99322.47
2022-09-07T20:39:21.530Z,99321.28
2022-09-07T20:41:50.546Z,99316.81
2022-09-07T20:44:18.408Z,99311.31
2022-09-07T20:46:46.077Z,99315.50
2022-09-07T20:49:13.707Z,99313.50
2022-09-07T20:51:41.213Z,99321.34
2022-09-07T20:54:08.966Z,99317.75
2022-09-07T20:56:36.623Z,99320.63
2022-09-07T20:59:05.491Z,99317.50
2022-09-07T21:01:34.979Z,99321.56
2022-09-07T21:04:03.068Z,99322.56
2022-09-07T21:06:32.604Z,99314.50
2022-09-07T21:09:00.794Z,99313.75
2022-09-07T21:11:30.165Z,99316.94
2022-09-07T21:13:58.792Z,99325.09
2022-09-07T21:16:28.903Z,99324.59
2022-09-07T21:18:58.848Z,99321.81
2022-09-07T21:21:27.682Z,99322.06
2022-09-07T21:23:56.728Z,99318.72
2022-09-07T21:26:25.000Z,99311.81
2022-09-07T21:28:56.942Z,99306.53
2022-09-07T21:31:25.152Z,99302.13
2022-09-07T21:33:56.458Z,99292.28
2022-09-07T21:36:24.649Z,99286.47
2022-09-07T21:38:52.788Z,99286.78
2022-09-07T21:41:22.367Z,99278.66
2022-09-07T21:43:49.982Z,99282.06
2022-09-07T21:46:19.585Z,99281.78
2022-09-07T21:48:47.506Z,99286.22
2022-09-07T21:51:17.251Z,99283.44
2022-09-07T21:53:45.353Z,99286.31
2022-09-07T21:56:14.936Z,99277.81
2022-09-07T21:58:43.576Z,99283.41
2022-09-07T22:01:12.660Z,99286.69
2022-09-07T22:03:40.606Z,99286.84
2022-09-07T22:06:09.714Z,99276.41
2022-09-07T22:08:40.685Z,99270.75
2022-09-07T22:11:10.391Z,99272.28
2022-09-07T22:13:38.684Z,99269.50
2022-09-07T22:16:07.986Z,99261.06
2022-09-07T22:18:38.046Z,99269.09
2022-09-07T22:21:07.695Z,99267.97
2022-09-07T22:23:39.620Z,99264.72
2022-09-07T22:26:08.733Z,99268.56
2022-09-07T22:28:37.665Z,99265.16
2022-09-07T22:31:13.144Z,99261.75
2022-09-07T22:33:41.233Z,99257.13
2022-09-07T22:36:14.339Z,99266.25
2022-09-07T22:38:44.510Z,99262.91
2022-09-07T22:41:14.130Z,99257.09
2022-09-07T22:43:42.548Z,99248.38
2022-09-07T22:46:11.107Z,99254.81
2022-09-07T22:48:39.346Z,99252.75
2022-09-07T22:51:07.345Z,99255.75
2022-09-07T22:53:37.006Z,99248.78
2022-09-07T22:56:09.277Z,99253.25
2022-09-07T22:58:37.155Z,99254.41
2022-09-07T23:01:05.995Z,99252.97
2022-09-07T23:03:35.641Z,99255.88
2022-09-07T23:06:04.084Z,99245.25
2022-09-07T23:08:31.905Z,99248.31
2022-09-07T23:11:04.414Z,99242.34
2022-09-07T23:13:33.512Z,99240.97
2022-09-07T23:16:05.527Z,99234.66
2022-09-07T23:18:33.750Z,99228.91
2022-09-07T23:21:02.222Z,99236.13
2022-09-07T23:23:30.481Z,99234.25
2022-09-07T23:25:58.017Z,99224.38
2022-09-07T23:28:25.523Z,99226.81
2022-09-07T23:30:54.939Z,99228.16
2022-09-07T23:33:22.472Z,99221.56
2022-09-07T23:35:57.326Z,99228.69
2022-09-07T23:38:25.280Z,99233.69
2022-09-07T23:40:52.804Z,99227.44
2022-09-07T23:43:20.378Z,99212.38
2022-09-07T23:45:48.059Z,99206.63
2022-09-07T23:48:17.822Z,99197.03
2022-09-07T23:50:46.346Z,99203.03
2022-09-07T23:53:14.260Z,99197.84
2022-09-07T23:55:42.190Z,99190.50
2022-09-07T23:58:10.241Z,99187.69
